createdAt,value
2023-01-21T00:01:54.969Z,10.35
2023-01-21T00:04:22.606Z,10.52
2023-01-21T00:06:50.244Z,11.90
2023-01-21T00:09:17.874Z,10.40
2023-01-21T00:11:45.578Z,10.30
2023-01-21T00:14:14.592Z,10.98
2023-01-21T00:16:42.270Z,10.30
2023-01-21T00:19:10.043Z,11.57
2023-01-21T00:21:37.698Z,10.63
2023-01-21T00:24:05.566Z,10.77
2023-01-21T00:26:33.201Z,9.60
2023-01-21T00:29:00.862Z,10.23
2023-01-21T00:31:30.018Z,9.82
2023-01-21T00:33:57.656Z,10.77
2023-01-21T00:36:29.665Z,11.52
2023-01-21T00:38:57.598Z,13.73
2023-01-21T00:41:26.201Z,11.75
2023-01-21T00:43:54.324Z,11.55
2023-01-21T00:46:22.163Z,10.95
2023-01-21T00:48:51.220Z,10.60
2023-01-21T00:51:18.904Z,11.00
2023-01-21T00:53:46.644Z,10.88
2023-01-21T00:56:14.787Z,11.20
2023-01-21T00:58:44.240Z,12.00
2023-01-21T01:01:14.542Z,12.75
2023-01-21T01:03:43.362Z,12.40
2023-01-21T01:06:14.636Z,12.38
2023-01-21T01:08:42.643Z,10.70
2023-01-21T01:11:10.762Z,12.60
2023-01-21T01:13:39.241Z,11.73
2023-01-21T01:16:07.863Z,13.00
2023-01-21T01:18:36.827Z,12.90
2023-01-21T01:21:05.945Z,11.60
2023-01-21T01:23:34.926Z,13.05
2023-01-21T01:26:04.582Z,12.90
2023-01-21T01:28:33.414Z,12.05
2023-01-21T01:31:01.891Z,12.05
2023-01-21T01:33:29.546Z,13.35
2023-01-21T01:36:02.489Z,12.65
2023-01-21T01:38:30.233Z,13.48
2023-01-21T01:40:59.758Z,13.45
2023-01-21T01:43:48.603Z,14.30
2023-01-21T01:46:16.347Z,13.10
2023-01-21T01:48:46.734Z,14.30
2023-01-21T01:51:19.400Z,13.07
2023-01-21T01:53:48.911Z,12.75
2023-01-21T01:56:17.978Z,11.68
2023-01-21T01:58:48.035Z,10.75
2023-01-21T02:01:15.793Z,11.18
2023-01-21T02:03:49.298Z,10.27
2023-01-21T02:06:18.778Z,10.13
2023-01-21T02:08:48.373Z,9.73
2023-01-21T02:11:19.172Z,10.75
2023-01-21T02:13:51.464Z,10.80
2023-01-21T02:16:46.250Z,11.70
2023-01-21T02:19:42.054Z,11.65
2023-01-21T02:22:17.326Z,9.95
2023-01-21T02:25:17.530Z,9.95
2023-01-21T02:27:55.713Z,9.30
2023-01-21T02:30:55.183Z,9.55
2023-01-21T02:33:44.288Z,10.68
2023-01-21T02:36:26.765Z,11.82
2023-01-21T02:39:03.160Z,11.82
2023-01-21T02:41:40.991Z,11.70
2023-01-21T02:44:14.282Z,12.40
2023-01-21T02:46:46.371Z,11.32
2023-01-21T02:49:23.449Z,11.95
2023-01-21T02:51:51.484Z,10.77
2023-01-21T02:54:50.747Z,11.27
2023-01-21T02:57:25.574Z,10.77
2023-01-21T02:59:56.744Z,11.20
2023-01-21T03:02:38.343Z,11.32
2023-01-21T03:05:14.544Z,10.18
2023-01-21T03:07:47.130Z,11.40
2023-01-21T03:10:23.647Z,12.88
2023-01-21T03:13:00.473Z,12.38
2023-01-21T03:15:50.621Z,10.50
2023-01-21T03:18:24.877Z,13.10
2023-01-21T03:20:56.743Z,11.25
2023-01-21T03:23:30.940Z,11.13
2023-01-21T03:26:00.401Z,12.23
2023-01-21T03:28:33.436Z,8.55
2023-01-21T03:31:06.004Z,9.52
2023-01-21T03:33:38.652Z,8.80
2023-01-21T03:36:13.482Z,8.30
2023-01-21T03:38:46.298Z,8.75
2023-01-21T03:41:18.058Z,8.93
2023-01-21T03:43:46.346Z,9.20
2023-01-21T03:46:22.528Z,11.35
2023-01-21T03:48:54.338Z,12.27
2023-01-21T03:51:28.902Z,12.20
2023-01-21T03:53:58.775Z,11.85
2023-01-21T03:56:27.575Z,12.68
2023-01-21T03:58:55.633Z,12.48
2023-01-21T04:01:23.680Z,13.10
2023-01-21T04:03:51.381Z,11.90
2023-01-21T04:06:21.436Z,12.43
2023-01-21T04:08:50.780Z,11.48
2023-01-21T04:11:18.719Z,9.43
2023-01-21T04:13:46.415Z,12.15
2023-01-21T04:16:14.280Z,12.90
2023-01-21T04:18:42.237Z,11.52
2023-01-21T04:21:09.955Z,13.30
2023-01-21T04:23:37.666Z,12.27
2023-01-21T04:26:07.533Z,12.23
2023-01-21T04:28:35.536Z,12.10
2023-01-21T04:31:03.665Z,12.63
2023-01-21T04:33:31.494Z,11.40
2023-01-21T04:36:00.125Z,11.40
2023-01-21T04:38:28.943Z,11.32
2023-01-21T04:40:56.687Z,11.90
2023-01-21T04:43:25.901Z,12.45
2023-01-21T04:45:53.659Z,12.45
2023-01-21T04:48:21.329Z,11.55
2023-01-21T04:50:49.021Z,11.93
2023-01-21T04:53:16.663Z,12.57
2023-01-21T04:55:44.336Z,12.80
2023-01-21T04:58:11.988Z,11.35
2023-01-21T05:00:41.119Z,13.20
2023-01-21T05:03:08.924Z,13.05
2023-01-21T05:05:36.756Z,12.85
2023-01-21T05:08:04.827Z,12.48
2023-01-21T05:10:32.478Z,12.93
2023-01-21T05:13:00.427Z,13.50
2023-01-21T05:15:28.184Z,12.27
2023-01-21T05:17:57.213Z,12.23
2023-01-21T05:20:24.919Z,12.30
2023-01-21T05:22:52.600Z,11.73
2023-01-21T05:25:20.336Z,12.75
2023-01-21T05:27:52.538Z,11.77
2023-01-21T05:30:20.533Z,10.52
2023-01-21T05:32:51.592Z,10.23
2023-01-21T05:35:21.427Z,10.02
2023-01-21T05:37:49.123Z,9.77
2023-01-21T05:40:17.763Z,9.65
2023-01-21T05:42:45.572Z,10.48
2023-01-21T05:45:13.672Z,11.30
2023-01-21T05:47:41.525Z,11.45
2023-01-21T05:50:11.017Z,10.13
2023-01-21T05:52:40.306Z,11.90
2023-01-21T05:55:08.899Z,12.32
2023-01-21T05:57:36.576Z,11.27
2023-01-21T06:00:05.624Z,10.07
2023-01-21T06:02:33.407Z,10.48
2023-01-21T06:05:01.111Z,11.98
2023-01-21T06:07:28.871Z,12.95
2023-01-21T06:09:57.888Z,12.73
2023-01-21T06:12:25.704Z,12.70
2023-01-21T06:14:53.392Z,13.18
2023-01-21T06:17:21.140Z,13.05
2023-01-21T06:19:48.946Z,14.00
2023-01-21T06:22:17.402Z,16.25
2023-01-21T06:24:45.370Z,18.67
2023-01-21T06:27:14.434Z,15.93
2023-01-21T06:29:42.094Z,15.90
2023-01-21T06:32:09.785Z,16.00
2023-01-21T06:34:37.480Z,17.00
2023-01-21T06:37:05.285Z,16.92
2023-01-21T06:39:32.891Z,17.65
2023-01-21T06:42:00.630Z,19.02
2023-01-21T06:44:30.319Z,18.15
2023-01-21T06:47:01.700Z,19.27
2023-01-21T06:49:29.868Z,20.52
2023-01-21T06:51:57.526Z,22.27
2023-01-21T06:54:25.153Z,23.23
2023-01-21T06:56:52.896Z,23.85
2023-01-21T06:59:20.708Z,24.27
2023-01-21T07:01:49.729Z,27.15
2023-01-21T07:04:17.361Z,24.40
2023-01-21T07:06:45.010Z,27.13
2023-01-21T07:09:12.777Z,26.88
2023-01-21T07:11:40.443Z,26.80
2023-01-21T07:14:08.056Z,28.42
2023-01-21T07:16:35.682Z,28.15
2023-01-21T07:19:04.839Z,28.90
2023-01-21T07:21:32.571Z,27.23
2023-01-21T07:24:00.515Z,28.02
2023-01-21T07:26:28.326Z,30.67
2023-01-21T07:28:56.088Z,28.58
2023-01-21T07:31:23.923Z,27.67
2023-01-21T07:33:51.887Z,30.13
2023-01-21T07:36:20.915Z,26.73
2023-01-21T07:38:48.638Z,29.38
2023-01-21T07:41:16.473Z,27.30
2023-01-21T07:43:44.189Z,27.55
2023-01-21T07:46:12.004Z,26.10
2023-01-21T07:48:39.707Z,27.13
2023-01-21T07:51:07.632Z,28.17
2023-01-21T07:53:36.750Z,25.13
2023-01-21T07:56:05.202Z,26.80
2023-01-21T07:58:32.977Z,24.63
2023-01-21T08:01:00.873Z,26.27
2023-01-21T08:03:28.548Z,27.02
2023-01-21T08:05:56.414Z,25.95
2023-01-21T08:08:24.181Z,25.25
2023-01-21T08:10:54.160Z,25.70
2023-01-21T08:13:22.624Z,26.17
2023-01-21T08:15:51.565Z,24.65
2023-01-21T08:18:19.540Z,26.48
2023-01-21T08:20:47.501Z,25.05
2023-01-21T08:23:15.632Z,25.58
2023-01-21T08:25:44.641Z,24.40
2023-01-21T08:28:14.925Z,24.85
2023-01-21T08:30:42.683Z,23.92
2023-01-21T08:33:10.390Z,27.48
2023-01-21T08:35:38.103Z,26.15
2023-01-21T08:38:05.843Z,28.08
2023-01-21T08:40:33.564Z,25.17
2023-01-21T08:43:04.004Z,25.33
2023-01-21T08:45:34.328Z,25.20
2023-01-21T08:48:04.694Z,24.30
2023-01-21T08:50:32.368Z,25.42
2023-01-21T08:53:00.105Z,24.02
2023-01-21T08:55:28.215Z,27.33
2023-01-21T08:57:56.093Z,26.70
2023-01-21T09:00:24.809Z,26.70
2023-01-21T09:02:54.084Z,25.70
2023-01-21T09:05:21.771Z,27.23
2023-01-21T09:07:49.499Z,26.73
2023-01-21T09:10:37.607Z,24.00
2023-01-21T09:13:06.380Z,25.98
2023-01-21T09:15:38.970Z,22.65
2023-01-21T09:18:08.454Z,23.95
2023-01-21T09:20:36.391Z,22.55
2023-01-21T09:23:24.002Z,23.67
2023-01-21T09:25:52.254Z,23.02
2023-01-21T09:28:20.583Z,23.33
2023-01-21T09:30:48.616Z,24.27
2023-01-21T09:33:17.767Z,23.88
2023-01-21T09:35:45.470Z,24.58
2023-01-21T09:38:13.787Z,23.50
2023-01-21T09:40:46.395Z,23.92
2023-01-21T09:43:20.326Z,24.58
2023-01-21T09:45:50.174Z,23.95
2023-01-21T09:48:27.521Z,22.80
2023-01-21T09:50:57.894Z,22.67
2023-01-21T09:53:29.386Z,23.33
2023-01-21T09:56:01.614Z,21.17
2023-01-21T09:58:36.843Z,22.67
2023-01-21T10:01:10.239Z,21.67
2023-01-21T10:03:53.448Z,21.50
2023-01-21T10:06:28.923Z,22.40
2023-01-21T10:09:13.772Z,21.55
2023-01-21T10:11:53.853Z,21.35
2023-01-21T10:14:34.621Z,22.30
2023-01-21T10:17:10.163Z,21.65
2023-01-21T10:19:43.385Z,22.50
2023-01-21T10:22:15.295Z,23.02
2023-01-21T10:24:47.076Z,23.63
2023-01-21T10:27:18.338Z,23.63
2023-01-21T10:29:49.066Z,22.05
2023-01-21T10:32:22.320Z,23.83
2023-01-21T10:34:53.284Z,23.05
2023-01-21T10:37:31.043Z,22.77
2023-01-21T10:40:05.304Z,21.80
2023-01-21T10:42:52.304Z,21.70
2023-01-21T10:45:29.421Z,21.60
2023-01-21T10:48:06.822Z,20.95
2023-01-21T10:50:45.963Z,20.73
2023-01-21T10:53:23.433Z,21.45
2023-01-21T10:56:02.388Z,21.50
2023-01-21T10:58:34.573Z,22.98
2023-01-21T11:01:06.401Z,21.08
2023-01-21T11:03:41.189Z,21.77
2023-01-21T11:06:14.103Z,22.85
2023-01-21T11:08:45.089Z,21.85
2023-01-21T11:11:15.717Z,21.52
2023-01-21T11:13:43.589Z,21.00
2023-01-21T11:16:11.430Z,22.25
2023-01-21T11:18:41.344Z,21.08
2023-01-21T11:21:19.701Z,20.90
2023-01-21T11:23:55.241Z,20.70
2023-01-21T11:26:26.886Z,20.38
2023-01-21T11:29:12.921Z,20.35
2023-01-21T11:31:42.059Z,19.92
2023-01-21T11:34:15.709Z,21.58
2023-01-21T11:36:58.423Z,24.98
2023-01-21T11:39:27.148Z,21.23
2023-01-21T11:41:56.568Z,21.23
2023-01-21T11:44:25.751Z,20.95
2023-01-21T11:46:53.685Z,19.85
2023-01-21T11:49:32.757Z,20.60
2023-01-21T11:52:19.463Z,18.85
2023-01-21T11:54:48.688Z,21.67
2023-01-21T11:57:25.324Z,19.92
2023-01-21T11:59:56.392Z,20.33
2023-01-21T12:02:29.341Z,20.95
2023-01-21T12:05:01.712Z,20.55
2023-01-21T12:07:33.961Z,20.58
2023-01-21T12:10:07.456Z,20.80
2023-01-21T12:12:59.300Z,21.90
2023-01-21T12:15:40.876Z,22.80
2023-01-21T12:18:26.825Z,19.58
2023-01-21T12:21:04.815Z,21.10
2023-01-21T12:23:47.321Z,21.05
2023-01-21T12:26:30.137Z,19.20
2023-01-21T12:29:11.975Z,21.42
2023-01-21T12:31:45.479Z,20.95
2023-01-21T12:34:21.309Z,19.30
2023-01-21T12:36:54.109Z,19.45
2023-01-21T12:39:29.520Z,20.20
2023-01-21T12:42:05.948Z,18.63
2023-01-21T12:44:37.644Z,19.35
2023-01-21T12:47:11.163Z,19.60
2023-01-21T12:49:58.840Z,21.13
2023-01-21T12:52:35.479Z,20.65
2023-01-21T12:55:13.157Z,19.45
2023-01-21T12:57:47.144Z,18.92
2023-01-21T13:00:19.943Z,17.85
2023-01-21T13:02:57.209Z,18.38
2023-01-21T13:05:31.988Z,17.60
2023-01-21T13:08:11.820Z,19.55
2023-01-21T13:10:45.236Z,17.60
2023-01-21T13:13:18.711Z,19.83
2023-01-21T13:15:50.685Z,18.27
2023-01-21T13:18:23.668Z,17.13
2023-01-21T13:20:54.774Z,17.83
2023-01-21T13:23:32.036Z,19.98
2023-01-21T13:26:07.811Z,19.17
2023-01-21T13:28:40.611Z,18.88
2023-01-21T13:31:16.150Z,20.75
2023-01-21T13:33:54.453Z,19.73
2023-01-21T13:36:34.023Z,20.17
2023-01-21T13:39:05.885Z,20.70
2023-01-21T13:41:57.785Z,19.98
2023-01-21T13:44:51.767Z,19.05
2023-01-21T13:47:31.309Z,19.70
2023-01-21T13:50:17.586Z,19.30
2023-01-21T13:53:08.048Z,20.40
2023-01-21T13:55:49.116Z,20.90
2023-01-21T13:58:26.565Z,20.83
2023-01-21T14:00:58.721Z,17.70
2023-01-21T14:03:33.348Z,20.20
2023-01-21T14:06:07.043Z,19.83
2023-01-21T14:08:40.921Z,18.30
2023-01-21T14:11:16.520Z,21.77
2023-01-21T14:14:17.562Z,19.05
2023-01-21T14:17:19.766Z,20.40
2023-01-21T14:20:05.054Z,18.75
2023-01-21T14:22:50.237Z,18.52
2023-01-21T14:25:34.062Z,19.10
2023-01-21T14:28:14.468Z,18.90
2023-01-21T14:30:49.241Z,18.23
2023-01-21T14:33:22.956Z,19.65
2023-01-21T14:36:02.089Z,19.05
2023-01-21T14:38:38.078Z,18.85
2023-01-21T14:41:07.401Z,17.45
2023-01-21T14:43:48.928Z,19.30
2023-01-21T14:46:29.116Z,18.45
2023-01-21T14:49:06.457Z,18.23
2023-01-21T14:51:36.658Z,18.20
2023-01-21T14:54:10.594Z,15.07
2023-01-21T14:56:39.459Z,18.23
2023-01-21T14:59:24.414Z,16.80
2023-01-21T15:02:01.458Z,17.40
2023-01-21T15:04:34.327Z,15.98
2023-01-21T15:07:07.574Z,18.70
2023-01-21T15:09:38.478Z,16.88
2023-01-21T15:12:15.270Z,17.05
2023-01-21T15:14:45.679Z,17.80
2023-01-21T15:18:03.248Z,16.85
2023-01-21T15:20:50.866Z,17.42
2023-01-21T15:23:22.636Z,15.80
2023-01-21T15:26:04.554Z,15.23
2023-01-21T15:28:44.861Z,17.83
2023-01-21T15:31:34.707Z,18.38
2023-01-21T15:34:08.064Z,18.73
2023-01-21T15:36:47.037Z,17.73
2023-01-21T15:39:18.710Z,16.00
2023-01-21T15:42:00.552Z,14.68
2023-01-21T15:44:56.888Z,15.20
2023-01-21T15:47:50.113Z,17.13
2023-01-21T15:50:23.374Z,15.02
2023-01-21T15:53:04.500Z,15.35
2023-01-21T15:55:47.472Z,14.70
2023-01-21T15:58:25.375Z,13.82
2023-01-21T16:01:05.167Z,15.13
2023-01-21T16:03:37.500Z,14.48
2023-01-21T16:06:16.520Z,13.63
2023-01-21T16:09:00.849Z,13.10
2023-01-21T16:12:00.029Z,13.82
2023-01-21T16:14:38.821Z,13.32
2023-01-21T16:17:18.836Z,12.50
2023-01-21T16:19:49.715Z,13.43
2023-01-21T16:22:23.615Z,14.10
2023-01-21T16:24:56.409Z,12.75
2023-01-21T16:27:26.604Z,14.20
2023-01-21T16:29:57.599Z,12.23
2023-01-21T16:32:26.922Z,12.50
2023-01-21T16:34:55.611Z,13.98
2023-01-21T16:37:26.735Z,13.88
2023-01-21T16:39:57.815Z,13.90
2023-01-21T16:42:32.299Z,11.80
2023-01-21T16:45:00.849Z,12.30
2023-01-21T16:47:35.909Z,12.38
2023-01-21T16:50:05.624Z,13.60
2023-01-21T16:52:33.641Z,11.57
2023-01-21T16:55:02.905Z,15.32
2023-01-21T16:57:32.461Z,14.20
2023-01-21T17:00:02.581Z,13.10
2023-01-21T17:02:32.593Z,11.73
2023-01-21T17:05:04.522Z,14.05
2023-01-21T17:07:36.200Z,12.10
2023-01-21T17:10:09.408Z,14.75
2023-01-21T17:12:37.819Z,12.95
2023-01-21T17:15:18.094Z,12.55
2023-01-21T17:17:47.145Z,12.25
2023-01-21T17:20:37.191Z,10.95
2023-01-21T17:23:10.381Z,13.10
2023-01-21T17:25:39.827Z,12.60
2023-01-21T17:28:18.190Z,14.25
2023-01-21T17:30:46.343Z,13.23
2023-01-21T17:33:30.447Z,14.30
2023-01-21T17:36:10.647Z,12.55
2023-01-21T17:38:42.564Z,12.80
2023-01-21T17:41:23.864Z,12.98
2023-01-21T17:43:55.458Z,12.75
2023-01-21T17:46:24.294Z,13.32
2023-01-21T17:48:54.366Z,13.02
2023-01-21T17:51:25.757Z,11.80
2023-01-21T17:53:58.117Z,14.02
2023-01-21T17:56:40.091Z,13.38
2023-01-21T17:59:31.562Z,13.15
2023-01-21T18:01:59.343Z,13.48
2023-01-21T18:04:27.058Z,13.57
2023-01-21T18:06:56.798Z,13.57
2023-01-21T18:09:25.909Z,14.05
2023-01-21T18:11:57.308Z,14.77
2023-01-21T18:14:27.400Z,16.02
2023-01-21T18:16:55.580Z,17.45
2023-01-21T18:19:29.162Z,15.50
2023-01-21T18:21:56.857Z,15.68
2023-01-21T18:24:25.401Z,14.88
2023-01-21T18:26:53.397Z,17.27
2023-01-21T18:29:26.603Z,15.93
2023-01-21T18:31:54.437Z,14.27
2023-01-21T18:34:22.234Z,16.00
2023-01-21T18:36:50.415Z,15.18
2023-01-21T18:39:19.924Z,16.00
2023-01-21T18:41:47.642Z,14.82
2023-01-21T18:44:16.368Z,15.88
2023-01-21T18:46:45.500Z,15.02
2023-01-21T18:49:18.458Z,16.60
2023-01-21T18:51:46.865Z,17.20
2023-01-21T18:54:16.598Z,14.95
2023-01-21T18:56:45.202Z,15.75
2023-01-21T18:59:15.043Z,16.80
2023-01-21T19:01:43.142Z,19.33
2023-01-21T19:04:15.676Z,18.92
2023-01-21T19:06:43.944Z,18.20
2023-01-21T19:09:21.358Z,21.50
2023-01-21T19:11:49.296Z,20.02
2023-01-21T19:14:17.518Z,19.80
2023-01-21T19:16:46.166Z,19.50
2023-01-21T19:19:19.162Z,17.77
2023-01-21T19:21:47.029Z,19.63
2023-01-21T19:24:14.795Z,20.85
2023-01-21T19:26:42.553Z,35.50
2023-01-21T19:29:16.226Z,21.08
2023-01-21T19:31:44.068Z,25.48
2023-01-21T19:34:11.936Z,23.85
2023-01-21T19:36:41.438Z,23.55
2023-01-21T19:39:15.458Z,22.95
2023-01-21T19:41:43.253Z,25.30
2023-01-21T19:44:21.099Z,21.30
2023-01-21T19:46:48.873Z,21.38
2023-01-21T19:49:18.392Z,21.45
2023-01-21T19:51:48.122Z,25.02
2023-01-21T19:54:15.901Z,23.20
2023-01-21T19:56:43.631Z,22.88
2023-01-21T19:59:14.117Z,23.58
2023-01-21T20:01:42.202Z,21.88
2023-01-21T20:04:10.432Z,22.15
2023-01-21T20:06:41.859Z,20.73
2023-01-21T20:09:14.635Z,21.00
2023-01-21T20:11:42.399Z,20.92
2023-01-21T20:14:10.120Z,21.52
2023-01-21T20:16:44.634Z,21.25
2023-01-21T20:19:16.851Z,21.77
2023-01-21T20:21:59.621Z,22.02
2023-01-21T20:24:33.810Z,22.25
2023-01-21T20:27:03.837Z,20.25
2023-01-21T20:29:31.841Z,19.50
2023-01-21T20:31:59.550Z,20.17
2023-01-21T20:34:30.912Z,19.98
2023-01-21T20:36:59.242Z,23.05
2023-01-21T20:39:26.949Z,21.63
2023-01-21T20:41:55.941Z,23.05
2023-01-21T20:44:25.098Z,22.15
2023-01-21T20:46:52.864Z,20.48
2023-01-21T20:49:21.117Z,20.75
2023-01-21T20:51:48.850Z,19.77
2023-01-21T20:54:16.545Z,20.67
2023-01-21T20:56:45.675Z,21.83
2023-01-21T20:59:14.728Z,20.88
2023-01-21T21:01:42.529Z,20.73
2023-01-21T21:04:10.204Z,20.73
2023-01-21T21:06:37.903Z,21.95
2023-01-21T21:09:05.524Z,22.75
2023-01-21T21:11:33.163Z,23.15
2023-01-21T21:14:01.840Z,20.88
2023-01-21T21:16:32.090Z,24.35
2023-01-21T21:19:00.654Z,23.15
2023-01-21T21:21:28.431Z,22.58
2023-01-21T21:23:56.071Z,21.67
2023-01-21T21:26:26.162Z,20.73
2023-01-21T21:28:55.608Z,23.88
2023-01-21T21:31:24.350Z,21.50
2023-01-21T21:33:53.638Z,24.60
2023-01-21T21:36:23.735Z,22.23
2023-01-21T21:38:55.403Z,21.80
2023-01-21T21:41:42.398Z,22.30
2023-01-21T21:44:10.949Z,24.90
2023-01-21T21:46:56.729Z,22.45
2023-01-21T21:49:26.015Z,24.25
2023-01-21T21:51:53.964Z,23.10
2023-01-21T21:54:23.520Z,22.10
2023-01-21T21:56:51.163Z,22.08
2023-01-21T21:59:18.808Z,22.73
2023-01-21T22:01:46.560Z,20.58
2023-01-21T22:04:14.550Z,22.42
2023-01-21T22:06:44.824Z,22.02
2023-01-21T22:09:12.495Z,20.83
2023-01-21T22:11:40.167Z,20.77
2023-01-21T22:14:07.960Z,22.42
2023-01-21T22:16:35.771Z,17.48
2023-01-21T22:19:03.513Z,17.83
2023-01-21T22:21:33.307Z,20.30
2023-01-21T22:24:02.969Z,21.45
2023-01-21T22:26:31.109Z,19.10
2023-01-21T22:28:59.301Z,19.75
2023-01-21T22:31:28.844Z,19.30
2023-01-21T22:33:57.604Z,19.98
2023-01-21T22:36:27.340Z,19.75
2023-01-21T22:38:55.351Z,19.63
2023-01-21T22:41:25.339Z,20.65
2023-01-21T22:43:53.983Z,20.63
2023-01-21T22:46:23.767Z,20.58
2023-01-21T22:48:51.846Z,20.52
2023-01-21T22:51:21.423Z,20.85
2023-01-21T22:53:50.660Z,20.25
2023-01-21T22:56:19.845Z,20.35
2023-01-21T22:58:49.026Z,20.52
2023-01-21T23:01:24.656Z,19.52
2023-01-21T23:03:53.053Z,22.90
2023-01-21T23:06:20.984Z,18.70
2023-01-21T23:08:49.042Z,19.00
2023-01-21T23:11:18.637Z,19.65
2023-01-21T23:13:49.087Z,17.98
2023-01-21T23:16:19.263Z,18.85
2023-01-21T23:18:47.192Z,19.60
2023-01-21T23:21:17.149Z,17.92
2023-01-21T23:23:45.526Z,17.02
2023-01-21T23:26:14.655Z,16.38
2023-01-21T23:28:42.992Z,18.42
2023-01-21T23:31:14.299Z,18.40
2023-01-21T23:33:42.450Z,18.63
2023-01-21T23:36:13.121Z,19.10
2023-01-21T23:38:41.660Z,18.77
2023-01-21T23:41:11.315Z,18.83
2023-01-21T23:43:39.513Z,18.48
2023-01-21T23:46:08.175Z,17.00
2023-01-21T23:48:37.193Z,17.17
2023-01-21T23:51:06.071Z,17.30
2023-01-21T23:53:34.613Z,17.05
2023-01-21T23:56:08.072Z,16.10
2023-01-21T23:58:36.130Z,17.60
